Accueil
METAR-TAF:

METAR-TAF

Aéroports :

Aéroport de Lannion-Côte de Granit

Lannion, France

latitude: 48-45N, longitude: 003-28W, altitude: 89 m

Observation

Le bulletin a été fait il y a 30 minutes, à 18:30 UTC
Vent 15 kt de est/sud-est
Température 5°C
Humidité 87%
Pression 1002 hPa
Visibilité 10 km ou plus
Nuages épars à une hauteur de 1300 ft
Ciel couvert à une hauteur de 7200 ft

METAR: LFRO 201830Z AUTO 12015KT 9999 SCT013 OVC072 05/03 Q1002

Heure: 20:00 (19:00 UTC)


TAF: absent

Observations et prévisions météorologiques de plus de 4000 aéroports (messages METAR et TAF).

Les stations disponibles sont représentées par des disques jaunes et rouges sur la carte.

Passer la souris dessus pour voir le nom de la station.

Cliquer dessus pour voir les observations et prévisions météorologiques.

Pour changer de carte: cliquez sur les boutons verts avec une croix noire pour zoomer, sur le bouton vert avec un tiret pour effectuer un zoom arrière, ou sur les flèches vertes pour les cartes adjacentes.


METAR-TAF: